INCM7: Indian Creek near Lanagan, MO

Data processed at Fri May 24 2019 23:50


All information presented herein is the property of the government of the United States of America and may be revised or deleted at any time without prior notice.
Dissemination of this information without the expressed written consent of the Public Affairs Office, Tulsa District U.S. Army Corps of Engineers is strictly prohibited.
These data are gathered electronically and, as presented, have not undergone any form of quality control. These data are not guaranteed to be valid or correct.
Go to home page.
Go to station list.
Go to home page.

Downstream station:


Previous Day
Next Day
Current Day
    
SHEF ID:       INCM7     Indian Creek near Lanagan, MO
STATION TYPE:  

               PRECIP     STAGE  RIV-FLOW  BAT-LOAD
                   in        ft       cfs      volt
              Ccp-Rev   Ccp-Rev   Ccp-Rev   Ccp-Rev
(US/Central)
05/24 00:00      0.00      4.90      1949     12.71
05/24 01:00      0.00      4.77      1820     12.71
05/24 02:00      0.00      4.76      1810     12.65
05/24 03:00      0.00      4.66      1714     12.65
05/24 04:00      0.00      4.52      1584     12.65
05/24 05:00      0.00      4.57      1630     12.60
05/24 06:00      0.00      4.46      1534     12.60
05/24 07:00      0.00      4.48      1550     12.65
05/24 08:00      0.00      4.46      1534     12.71
05/24 09:00      0.00      4.39      1477     12.89
05/24 10:00      0.00      4.36      1453     13.12
05/24 11:00      0.00      4.31      1414     13.36
05/24 12:00      0.00      4.26      1375     13.77
05/24 13:00      0.00      4.31      1414     13.18
05/24 14:00      ----      4.24      1359      ----
05/24 15:00      ----      ----      ----     13.18
05/24 16:00      ----      ----      ----      ----
05/24 17:00      ----      4.07      1233     13.30
05/24 18:00      0.00      4.08      1240     12.89
05/24 19:00      ----      ----      ----      ----
05/24 20:00      ----      4.03      1204     13.07
05/24 21:00      0.00      3.99      1176     12.71
05/24 22:00      0.00      3.94      1141     12.71
05/24 23:00      0.00      3.97      1162     12.71